KHIB/HIB METAR and TAF weather

Enter ICAO airport designator
Station Type Date Time Source
KHIB METAR 2020/04/05 11:53 UTC NOAA

KHIB 051153Z AUTO 00000KT 7SM BKN100 OVC120 M06/M08 A3012 RMK AO2 SLP220 I6000 T10611083 11050 21078 55001 $


Station Type Date Time Source
KHIB Decoded METAR 2020/04/05 11:53 UTC NOAA

CHISHOLM-HIBBING AIRPORT, MN, United States (KHIB) 47-23N 92-50W 412M
Apr 05, 2020 - 07:53 AM EDT / 2020.04.05 1153 UTC
Wind: Calm:0
Visibility: 7 mile(s):0
Sky conditions: overcast
Temperature: 21.0 F (-6.1 C)
Dew Point: 17.1 F (-8.3 C)
Relative Humidity: 84%
Pressure (altimeter): 30.12 in. Hg (1019 hPa)
Pressure tendency: 0.00 inches (0.1 hPa) lower than three hours ago
ob: KHIB 051153Z AUTO 00000KT 7SM BKN100 OVC120 M06/M08 A3012 RMK AO2 SLP220 I6000 T10611083 11050 21078 55001
cycle: 12

Station Type Date Time Source
KHIB TAF 2020/04/05 12:36 UTC NOAA

TAF KHIB 051135Z 0512/0612 VRB03KT P6SM BKN110
FM051700 20009G16KT P6SM SCT110
FM052200 17005KT P6SM BKN110
FM060900 VRB03KT P6SM VCSH SCT025 OVC040

Example: see airport list